This is the latest recevied weather packets stored in our database for station/object HS5NMF. If no packets are shown the sender has not sent any weather packets the latest 1 day(s).
| Time | Temp. | Humidity | Pressure | Rain* | Wind** | Luminosity | Snow |
|---|---|---|---|---|---|---|---|
| 1836274682 | 38.89° C | 43% | 976 hPa | - | 0 m/s | 0 W/m² | - |
| 1836274681 | 38.89° C | 43% | 976 hPa | - | 0 m/s | 0 W/m² | - |
| 1836274576 | 38.89° C | 42% | - | - | 0 m/s | - | - |
| 1836274576 | 38.89° C | - | - | - | 0 m/s | - | - |
| 1836274576 | 38.89° C | 42% | 976 hPa | - | 0 m/s | 0 W/m² | - |
| 1836274357 | 39.44° C | 41% | 976 hPa | - | 0 m/s | 0 W/m² | - |
| 1836274254 | 39.44° C | 42% | 976 hPa | - | 0 m/s | 0 W/m² | - |
| 1836274254 | 39.44° C | 42% | 976 hPa | - | 0 m/s | 0 W/m² | - |
| 1836274034 | 38.33° C | 42% | 977 hPa | - | 0 m/s | 0 W/m² | - |
| 1778048226 | 35° C | 56% | 976 hPa | - | 0 m/s | 0 W/m² | - |
| 1778047903 | 35° C | 57% | 976 hPa | - | 0 m/s | 0 W/m² | - |
| 1778047581 | 35° C | 57% | 977 hPa | - | 0 m/s | 0 W/m² | - |
| 1778047257 | 35° C | 57% | 977 hPa | - | 0 m/s | 0 W/m² | - |
| 1778046935 | 35.56° C | 56% | 977 hPa | - | 0 m/s | 0 W/m² | - |
| 1778046614 | 36.11° C | 54% | 977 hPa | - | 0 m/s | 0 W/m² | - |
| 1778046289 | 36.67° C | 52% | 977 hPa | - | 0 m/s | 0 W/m² | - |
| 1778045966 | 37.22° C | 49% | 977 hPa | - | 0 m/s | 0 W/m² | - |
| 1778045644 | 37.22° C | 45% | 977 hPa | - | 0 m/s | 0 W/m² | - |
| 1778045322 | 36.67° C | 46% | 978 hPa | - | 0 m/s | 0 W/m² | - |
| 1778044998 | 37.22° C | 47% | 978 hPa | - | 0 m/s | 0 W/m² | - |
| 1778044675 | 37.22° C | 47% | 977 hPa | - | 0 m/s | 0 W/m² | - |
| 1778044353 | 37.22° C | 44% | 977 hPa | - | 0 m/s | 0 W/m² | - |
| 1778044017 | 36.67° C | 47% | 978 hPa | - | 0 m/s | 0 W/m² | - |
| 1778043982 | 36.67° C | 46% | 978 hPa | - | 0 m/s | 0 W/m² | - |
| 1778043973 | 36.67° C | 46% | 978 hPa | - | 0 m/s | 0 W/m² | - |
* Rain since midnight (hover to see other rain measurements)
** Current wind speed in m/s (hover to see current wind gust speed)